Archival Weather

Snohomish County (Paine Fld)

Everett, Washington (KPAE)

Report from: Tuesday, November 7, 2023 9:32 AM PST
Current time: Monday, June 17, 2024 1:05 AM PDT

Current weather – Weather history – Daily summaries
Weather forecast

Temperature10.0°C (50.0°F)
Wind chill9.6°C (49.3°F)
Dew point6.1°C (43.0°F)
Winds 3 kts (1.5 m/s, 3.5 mph) North-Northwest (340°)
Visibility10 mi. (16.1 km)
Clouds Few clouds 1,200 ft. (366 m)
Ceiling: Broken clouds 2,300 ft. (701 m)
Altimeter30.02 in.Hg (1017 mB)
Relative humidity77 %
Density altitude-575 ft. (-175 m)
Remarks Corrected report
Automated weather observing station with precipitation discriminator
Flight conditions Marginal Visual Meteorological Conditions
Raw dataKPAE 071732Z COR 34003KT 10SM FEW012 BKN023 10/06 A3002 RMK AO2 T01000061
An error has occurred. This application may no longer respond until reloaded. Reload 🗙